1893 NOT_NAMED (1893248N18125)


IBTrACS version v04r00. Visit IBTrACS website for data access.
Please direct all questions to the IBTrACS Q and A forum

Storm track - Intensity - Wind Radii - Intensity Data - Source Data - All data

Summary Information

Storm ID 1893248N18125
Start Sep 4 16Z
Landfall Sep 8 16Z
End Sep 9 04Z
ATCF IDs
Track status Best track data.

Storm track plot

Map of storm track

Intensity plots

No Intensity information for this storm


Radial wind information

No radial wind information for this storm


Position and Intensity Table

BASIN ISO_TIME_________ NATURE LAT LON
degrees north degrees east
WP 1893-09-04 16:00:00 NR 17.70 125.00
WP 18:00:00 NR 17.73 124.95
WP 21:00:00 NR 17.78 124.84
WP 1893-09-05 00:00:00 NR 17.85 124.68
WP 03:00:00 NR 17.96 124.42
WP 04:00:00 NR 18.00 124.30
WP 06:00:00 NR 18.10 124.02
WP 09:00:00 NR 18.27 123.52
WP 12:00:00 NR 18.46 122.95
WP 15:00:00 NR 18.64 122.38
WP 16:00:00 NR 18.70 122.20
WP 18:00:00 NR 18.80 121.89
WP 21:00:00 NR 18.94 121.43
WP 1893-09-06 00:00:00 NR 19.06 120.99
WP 03:00:00 NR 19.17 120.55
WP 04:00:00 NR 19.20 120.40
WP 06:00:00 NR 19.26 120.08
WP 09:00:00 NR 19.34 119.60
WP 12:00:00 NR 19.41 119.12
WP 15:00:00 NR 19.48 118.65
WP 16:00:00 NR 19.50 118.50
WP 18:00:00 NR 19.54 118.18
WP 21:00:00 NR 19.61 117.72
WP 1893-09-07 00:00:00 NR 19.68 117.28
WP 03:00:00 NR 19.77 116.91
WP 04:00:00 NR 19.80 116.80
WP 06:00:00 NR 19.88 116.60
WP 09:00:00 NR 20.03 116.37
WP 12:00:00 NR 20.18 116.19
WP 15:00:00 NR 20.35 116.04
WP 16:00:00 NR 20.40 116.00
WP 18:00:00 NR 20.47 115.91
WP 21:00:00 NR 20.57 115.80
WP 1893-09-08 00:00:00 NR 20.71 115.71
WP 03:00:00 NR 20.91 115.63
WP 04:00:00 NR 21.00 115.60
WP 06:00:00 NR 21.24 115.52
WP 09:00:00 NR 21.68 115.41
WP 12:00:00 NR 22.17 115.30
WP 15:00:00 NR 22.65 115.22
WP 16:00:00 NR 22.80 115.20
WP 18:00:00 NR 23.08 115.17
WP 21:00:00 NR 23.46 115.16
WP 1893-09-09 00:00:00 NR 23.79 115.17
WP 03:00:00 NR 24.10 115.19
WP 04:00:00 NR 24.20 115.20

Source Information

Agency Information
USA
TOKYO
CMA
HKO
NEWDELHI
REUNION
BOM
NADI
WELLINGTON
DS824
TD9636 cons_worldwide_trop_cyclone_18710101-19891231-003:Line=1226
TD9635
NEUMANN
MLC

All available IBTrACS Data

SEASON BASIN SUBBASIN ISO_TIME_________ NATURE LAT LON DIST2LAND LANDFALL IFLAG USA SSHS TD9636 LAT TD9636 LON TD9636 STAGE STORM SPEED STORM DIR
Year degrees north degrees east km km 1 degrees north degrees east kts degrees
1893 WP MM 1893-09-04 16:00:00 NR 17.70 125.00 276 266 __________O___ -1 17.70 125.00 3 2 296
1893 WP MM 18:00:00 NR 17.73 124.95 266 259 __________P___ -1 17.73 124.95 3 2 300
1893 WP MM 21:00:00 NR 17.78 124.84 259 250 __________P___ -1 17.78 124.84 3 3 296
1893 WP MM 1893-09-05 00:00:00 NR 17.85 124.68 252 224 __________P___ -1 17.85 124.68 3 4 293
1893 WP MM 03:00:00 NR 17.96 124.42 224 214 __________P___ -1 17.96 124.42 3 6 292
1893 WP MM 04:00:00 NR 18.00 124.30 214 180 __________O___ -1 18.00 124.30 4 8 291
1893 WP MM 06:00:00 NR 18.10 124.02 180 126 __________P___ -1 18.10 124.02 4 10 290
1893 WP MM 09:00:00 NR 18.27 123.52 126 73 __________P___ -1 18.27 123.52 4 11 290
1893 WP MM 12:00:00 NR 18.46 122.95 74 24 __________P___ -1 18.46 122.95 4 11 289
1893 WP MM 15:00:00 NR 18.64 122.38 24 33 __________P___ -1 18.64 122.38 4 11 288
1893 WP MM 16:00:00 NR 18.70 122.20 33 33 __________O___ -1 18.70 122.20 4 10 288
1893 WP MM 18:00:00 NR 18.80 121.89 49 44 __________P___ -1 18.80 121.89 4 9 288
1893 WP MM 21:00:00 NR 18.94 121.43 44 44 __________P___ -1 18.94 121.43 4 9 287
1893 WP MM 1893-09-06 00:00:00 NR 19.06 120.99 56 55 __________P___ -1 19.06 120.99 4 9 285
1893 WP MM 03:00:00 NR 19.17 120.55 74 74 __________P___ -1 19.17 120.55 4 9 284
1893 WP MM 04:00:00 NR 19.20 120.40 79 79 __________O___ -1 19.20 120.40 4 9 282
1893 WP MM 06:00:00 NR 19.26 120.08 107 107 __________P___ -1 19.26 120.08 4 9 281
1893 WP MM 09:00:00 NR 19.34 119.60 145 145 __________P___ -1 19.34 119.60 4 9 279
1893 WP MM 12:00:00 NR 19.41 119.12 193 193 __________P___ -1 19.41 119.12 4 9 279
1893 WP MM 15:00:00 NR 19.48 118.65 234 243 __________P___ -1 19.48 118.65 4 9 279
1893 WP MM 16:00:00 NR 19.50 118.50 252 252 __________O___ -1 19.50 118.50 4 9 278
1893 WP MM 18:00:00 NR 19.54 118.18 280 280 __________P___ -1 19.54 118.18 4 9 278
1893 WP MM 21:00:00 NR 19.61 117.72 333 333 __________P___ -1 19.61 117.72 4 9 279
1893 WP MM 1893-09-07 00:00:00 NR 19.68 117.28 367 343 __________P___ -1 19.68 117.28 4 8 282
1893 WP MM 03:00:00 NR 19.77 116.91 343 340 __________P___ -1 19.77 116.91 4 7 285
1893 WP MM 04:00:00 NR 19.80 116.80 340 323 __________O___ -1 19.80 116.80 4 6 292
1893 WP MM 06:00:00 NR 19.88 116.60 323 308 __________P___ -1 19.88 116.60 4 6 299
1893 WP MM 09:00:00 NR 20.03 116.37 308 282 __________P___ -1 20.03 116.37 4 5 307
1893 WP MM 12:00:00 NR 20.18 116.19 282 269 __________P___ -1 20.18 116.19 4 4 316
1893 WP MM 15:00:00 NR 20.35 116.04 269 258 __________P___ -1 20.35 116.04 4 4 321
1893 WP MM 16:00:00 NR 20.40 116.00 258 246 __________O___ -1 20.40 116.00 4 3 314
1893 WP MM 18:00:00 NR 20.47 115.91 246 231 __________P___ -1 20.47 115.91 4 3 312
1893 WP MM 21:00:00 NR 20.57 115.80 231 217 __________P___ -1 20.57 115.80 4 3 322
1893 WP MM 1893-09-08 00:00:00 NR 20.71 115.71 217 192 __________P___ -1 20.71 115.71 4 4 334
1893 WP MM 03:00:00 NR 20.91 115.63 192 182 __________P___ -1 20.91 115.63 4 5 340
1893 WP MM 04:00:00 NR 21.00 115.60 182 157 __________O___ -1 21.00 115.60 4 7 343
1893 WP MM 06:00:00 NR 21.24 115.52 157 103 __________P___ -1 21.24 115.52 4 8 345
1893 WP MM 09:00:00 NR 21.68 115.41 103 53 __________P___ -1 21.68 115.41 4 10 347
1893 WP MM 12:00:00 NR 22.17 115.30 53 15 __________P___ -1 22.17 115.30 4 10 350
1893 WP MM 15:00:00 NR 22.65 115.22 15 0 __________P___ -1 22.65 115.22 4 10 352
1893 WP MM 16:00:00 NR 22.80 115.20 0 0 __________O___ -1 22.80 115.20 4 9 356
1893 WP MM 18:00:00 NR 23.08 115.17 0 0 __________P___ -1 23.08 115.17 4 8 357
1893 WP MM 21:00:00 NR 23.46 115.16 0 0 __________P___ -1 23.46 115.16 4 7 360
1893 WP MM 1893-09-09 00:00:00 NR 23.79 115.17 0 0 __________P___ -1 23.79 115.17 4 6 4
1893 WP MM 03:00:00 NR 24.10 115.19 0 0 __________P___ -1 24.10 115.19 4 6 5
1893 WP MM 04:00:00 NR 24.20 115.20 0 __________O___ -1 24.20 115.20 4 6 15